Time;durP1;ratioP1;P1;durP2;ratioP2;P2;SDS_P1;SDS_P2;PMS_P1;PMS_P2;Temp;Humidity;BMP_temperature;BMP_pressure;BME280_temperature;BME280_humidity;BME280_pressure;Samples;Min_cycle;Max_cycle;Signal;HPM_P1;HPM_P2
2022/09/16 00:00:26;;;;;;;;;3.67;3.33;;;;;20.19;47.18;100821.44;5097130;27;45495;-74
2022/09/16 00:02:52;;;;;;;;;4.00;2.33;;;;;20.04;47.36;100804.41;5102480;27;46902;-72
2022/09/16 00:05:18;;;;;;;;;4.67;4.00;;;;;20.14;47.52;100824.19;5102518;27;45502;-69
2022/09/16 00:07:43;;;;;;;;;7.00;4.33;;;;;20.09;47.80;100831.50;5106487;27;45514;-70
2022/09/16 00:10:09;;;;;;;;;4.67;3.00;;;;;20.10;47.74;100835.13;5102264;27;45242;-68
2022/09/16 00:12:35;;;;;;;;;4.33;4.33;;;;;20.06;47.87;100835.16;5093479;27;46672;-67
2022/09/16 00:15:00;;;;;;;;;6.33;4.00;;;;;19.94;48.01;100818.13;5100489;27;50833;-66
2022/09/16 00:17:26;;;;;;;;;2.00;1.00;;;;;19.84;48.24;100815.50;5099843;27;45599;-67
2022/09/16 00:19:51;;;;;;;;;3.00;3.00;;;;;20.00;48.19;100846.06;5109376;27;45527;-68
2022/09/16 00:22:17;;;;;;;;;3.00;3.00;;;;;19.86;48.19;100819.13;5105138;27;45964;-68
2022/09/16 00:24:43;;;;;;;;;5.00;3.00;;;;;20.00;48.19;100851.50;5099993;27;45593;-68
2022/09/16 00:27:09;;;;;;;;;3.33;3.00;;;;;19.84;48.22;100826.34;5096842;27;45611;-68
2022/09/16 00:29:35;;;;;;;;;3.33;3.33;;;;;19.82;48.37;100828.19;5115772;27;45469;-68
2022/09/16 00:32:00;;;;;;;;;5.33;4.33;;;;;19.87;48.51;100856.13;5105074;27;46550;-72
2022/09/16 00:34:25;;;;;;;;;4.33;3.67;;;;;19.81;48.55;100852.59;5101335;27;45420;-68
2022/09/16 00:36:51;;;;;;;;;3.67;3.00;;;;;19.56;48.70;100819.38;5104723;27;50020;-67
2022/09/16 00:39:16;;;;;;;;;3.67;3.67;;;;;19.68;49.24;100857.19;5098908;27;48007;-67
2022/09/16 00:41:42;;;;;;;;;2.00;2.00;;;;;19.60;49.16;100854.56;5107964;27;45548;-65
2022/09/16 00:44:44;;;;;;;;;4.00;3.00;;;;;19.57;49.24;100854.59;5104941;27;45442;-66
2022/09/16 00:47:10;;;;;;;;;6.67;5.00;;;;;19.42;49.25;100833.03;5099603;27;45599;-67
2022/09/16 00:49:35;;;;;;;;;5.33;4.33;;;;;19.50;49.42;100842.00;5099663;27;45359;-67
2022/09/16 00:52:04;;;;;;;;;6.67;5.00;;;;;19.42;49.75;100827.63;5107195;27;45386;-66
2022/09/16 00:54:32;;;;;;;;;5.33;5.00;;;;;19.60;49.40;100856.38;5106157;27;45516;-67
2022/09/16 00:56:59;;;;;;;;;6.00;3.00;;;;;19.58;49.83;100850.97;5105547;27;45751;-66
2022/09/16 00:59:27;;;;;;;;;4.33;4.33;;;;;19.42;49.90;100824.91;5109874;27;45386;-66
2022/09/16 01:01:54;;;;;;;;;4.00;4.00;;;;;19.17;50.17;100784.47;5102871;27;46194;-66
2022/09/16 01:04:28;;;;;;;;;3.00;3.00;;;;;19.56;50.14;100847.38;5100268;27;45642;-68
2022/09/16 01:06:54;;;;;;;;;5.00;5.00;;;;;19.58;50.28;100845.53;5105452;27;45443;-66
2022/09/16 01:09:23;;;;;;;;;9.33;6.00;;;;;19.56;50.47;100841.06;5105127;27;45645;-68
2022/09/16 01:11:48;;;;;;;;;10.67;5.00;;;;;19.52;50.48;100842.91;5103094;27;46060;-66
2022/09/16 01:17:37;;;;;;;;;4.33;4.33;;;;;19.45;50.91;100844.78;5107540;27;45394;-66
2022/09/16 01:20:22;;;;;;;;;6.67;6.67;;;;;19.22;51.59;100839.53;5103477;27;45614;-65
2022/09/16 01:23:10;;;;;;;;;4.00;4.00;;;;;19.19;51.99;100850.41;5102387;27;46198;-68
2022/09/16 01:25:53;;;;;;;;;4.00;4.00;;;;;19.19;52.13;100853.09;5101479;27;45392;-67
2022/09/16 01:28:52;;;;;;;;;6.67;4.00;;;;;19.15;52.52;100848.59;5106897;27;45558;-67
2022/09/16 01:31:27;;;;;;;;;6.33;4.00;;;;;19.16;52.35;100847.72;5105195;27;45469;-67
2022/09/16 01:34:09;;;;;;;;;5.00;5.00;;;;;19.02;52.28;100831.53;5103941;27;46280;-67
2022/09/16 01:37:01;;;;;;;;;5.33;5.00;;;;;18.91;52.85;100833.47;5104766;27;45584;-66
2022/09/16 01:40:01;;;;;;;;;4.67;4.33;;;;;18.85;53.08;100830.78;5097994;27;45424;-66
2022/09/16 01:42:37;;;;;;;;;4.00;4.00;;;;;18.77;53.09;100811.84;5095520;27;45902;-68
2022/09/16 01:45:10;;;;;;;;;6.33;5.00;;;;;18.95;53.03;100840.63;5098422;27;53407;-66
2022/09/16 01:47:40;;;;;;;;;7.00;4.00;;;;;18.92;53.34;100841.56;5105670;27;45539;-65
2022/09/16 01:50:26;;;;;;;;;5.67;4.67;;;;;18.90;53.51;100842.47;5099119;27;45474;-67
2022/09/16 01:53:08;;;;;;;;;5.67;4.67;;;;;18.82;53.52;100845.19;5108644;27;45494;-67
2022/09/16 01:56:11;;;;;;;;;8.33;5.00;;;;;18.88;53.68;100842.47;5121233;27;45452;-68
2022/09/16 01:58:58;;;;;;;;;3.67;3.67;;;;;18.94;53.58;100838.81;5101998;27;45491;-69
2022/09/16 02:02:01;;;;;;;;;3.00;3.00;;;;;19.00;53.59;100837.91;5099949;27;45324;-66
2022/09/16 02:04:41;;;;;;;;;4.00;4.00;;;;;18.98;53.38;100818.06;5097582;27;45597;-67
2022/09/16 02:07:09;;;;;;;;;3.67;3.33;;;;;19.20;53.05;100835.94;5096506;27;46098;-66
2022/09/16 02:09:44;;;;;;;;;7.67;4.00;;;;;19.14;53.00;100825.16;5111858;27;45511;-66
2022/09/16 02:12:19;;;;;;;;;5.33;5.33;;;;;19.16;53.45;100842.28;5109929;27;45637;-67
2022/09/16 02:14:48;;;;;;;;;4.33;3.33;;;;;19.06;53.53;100827.91;5100220;27;45475;-67
2022/09/16 02:17:19;;;;;;;;;5.00;4.67;;;;;18.87;53.71;100800.06;5097822;27;45700;-66
2022/09/16 02:19:56;;;;;;;;;13.33;5.33;;;;;18.88;53.85;100809.09;5097712;27;45664;-68
2022/09/16 02:22:31;;;;;;;;;5.00;4.33;;;;;19.05;53.88;100836.94;5102051;27;45513;-66
2022/09/16 02:24:58;;;;;;;;;5.00;5.00;;;;;18.92;54.06;100816.28;5107724;27;45330;-67
2022/09/16 02:27:28;;;;;;;;;6.00;5.00;;;;;19.01;53.96;100828.88;5103978;27;45564;-68
2022/09/16 02:29:59;;;;;;;;;6.00;6.00;;;;;19.01;54.16;100827.06;5096202;27;45436;-68
2022/09/16 02:32:27;;;;;;;;;6.00;5.00;;;;;19.07;53.86;100835.16;5101924;27;45459;-68
2022/09/16 02:34:54;;;;;;;;;7.00;4.33;;;;;18.94;54.10;100799.13;5105620;27;45478;-67
2022/09/16 02:37:34;;;;;;;;;9.33;5.00;;;;;19.04;54.10;100815.28;5103200;27;46252;-66
2022/09/16 02:40:04;;;;;;;;;9.00;5.00;;;;;19.10;54.08;100821.56;5107017;27;45540;-66
2022/09/16 02:42:31;;;;;;;;;6.00;6.00;;;;;19.05;54.38;100818.00;5105557;27;45740;-68
2022/09/16 02:44:58;;;;;;;;;5.67;5.67;;;;;19.05;54.40;100822.50;5106891;27;45454;-68
2022/09/16 02:47:32;;;;;;;;;9.67;6.00;;;;;19.06;54.50;100824.31;5103037;27;45419;-67
2022/09/16 02:50:07;;;;;;;;;6.33;6.33;;;;;19.05;54.46;100814.38;5111816;27;45513;-65
2022/09/16 02:52:51;;;;;;;;;10.33;6.00;;;;;19.04;54.41;100813.50;5102643;27;45429;-70
2022/09/16 02:55:54;;;;;;;;;5.67;5.67;;;;;19.04;54.34;100826.13;5103581;27;45469;-68
2022/09/16 02:58:20;;;;;;;;;7.33;4.33;;;;;19.03;54.34;100821.63;5089626;27;45635;-69
2022/09/16 03:00:50;;;;;;;;;8.00;6.00;;;;;19.03;54.43;100814.41;5107656;27;46323;-66
2022/09/16 03:03:16;;;;;;;;;7.33;7.00;;;;;19.02;54.41;100815.28;5109217;27;45532;-68
2022/09/16 03:06:06;;;;;;;;;5.33;5.33;;;;;19.03;54.17;100811.69;5100593;27;45279;-66
2022/09/16 03:08:33;;;;;;;;;12.00;10.67;;;;;18.96;54.45;100793.69;5107788;27;45507;-66
2022/09/16 03:11:11;;;;;;;;;6.33;6.00;;;;;18.96;54.38;100812.66;5096319;27;45530;-70
2022/09/16 03:13:59;;;;;;;;;8.33;8.33;;;;;18.76;54.50;100775.75;5098035;27;45582;-71
2022/09/16 03:16:39;;;;;;;;;8.33;4.33;;;;;19.02;54.32;100814.41;5103429;27;45507;-71
2022/09/16 03:19:35;;;;;;;;;7.00;5.00;;;;;18.50;54.47;100727.22;5099526;27;45728;-67
2022/09/16 03:22:09;;;;;;;;;6.33;5.33;;;;;18.98;54.33;100810.84;5106594;27;45388;-66
2022/09/16 03:24:37;;;;;;;;;6.00;6.00;;;;;18.89;54.75;100800.06;5105695;27;45363;-68
2022/09/16 03:27:19;;;;;;;;;6.67;5.00;;;;;18.76;55.06;100801.94;5109547;27;45313;-66
2022/09/16 03:29:53;;;;;;;;;5.00;3.67;;;;;18.62;55.36;100798.41;5093796;27;46951;-66
2022/09/16 03:32:30;;;;;;;;;6.33;6.33;;;;;18.60;55.52;100798.41;5105402;27;45578;-67
2022/09/16 03:35:31;;;;;;;;;4.67;4.00;;;;;18.59;55.58;100807.44;5099350;27;45396;-66
2022/09/16 03:37:58;;;;;;;;;4.67;4.00;;;;;18.59;55.73;100815.53;5094151;27;45400;-66
2022/09/16 03:40:25;;;;;;;;;5.67;4.00;;;;;18.56;55.89;100810.16;5108462;27;45509;-67
2022/09/16 03:42:51;;;;;;;;;7.00;5.00;;;;;18.58;55.54;100819.19;5099102;27;45347;-68
2022/09/16 03:45:19;;;;;;;;;5.67;5.67;;;;;18.55;55.24;100820.09;5097809;27;45579;-69
2022/09/16 03:47:47;;;;;;;;;9.00;4.33;;;;;18.59;55.60;100827.28;5099878;27;45629;-69
2022/09/16 03:50:13;;;;;;;;;6.67;5.00;;;;;18.47;55.36;100810.22;5099331;27;45663;-68
2022/09/16 03:52:38;;;;;;;;;7.00;6.67;;;;;18.60;55.65;100825.47;5106128;27;45325;-68
2022/09/16 03:55:05;;;;;;;;;5.00;4.00;;;;;18.16;55.57;100767.09;5100552;27;45448;-68
2022/09/16 03:57:31;;;;;;;;;5.00;4.00;;;;;18.51;55.94;100831.84;5107082;27;45380;-68
2022/09/16 03:59:56;;;;;;;;;7.00;7.00;;;;;18.48;55.87;100834.56;5100448;27;45962;-67
2022/09/16 04:02:21;;;;;;;;;8.00;8.00;;;;;18.41;56.31;100830.97;5107221;27;45560;-66
2022/09/16 04:04:47;;;;;;;;;5.33;5.33;;;;;18.42;56.17;100837.28;5099397;27;45327;-66
2022/09/16 04:07:14;;;;;;;;;3.67;3.67;;;;;18.44;56.19;100837.28;5096448;27;45666;-66
2022/09/16 04:09:41;;;;;;;;;6.00;4.00;;;;;18.47;56.11;100827.34;5103485;27;46141;-67
2022/09/16 04:12:06;;;;;;;;;8.33;6.00;;;;;18.42;56.04;100831.88;5099849;27;45502;-67
2022/09/16 04:14:32;;;;;;;;;8.33;6.33;;;;;18.41;56.12;100836.41;5105688;27;45497;-66
2022/09/16 04:16:57;;;;;;;;;6.00;6.00;;;;;18.28;56.24;100831.94;5104668;27;45452;-66
2022/09/16 04:19:23;;;;;;;;;6.33;5.67;;;;;18.29;56.44;100851.78;5094364;27;45573;-66
2022/09/16 04:21:48;;;;;;;;;11.00;7.33;;;;;18.17;56.15;100831.09;5102177;27;45377;-67
2022/09/16 04:24:14;;;;;;;;;5.00;5.00;;;;;18.24;56.66;100841.84;5106159;27;54823;-65
2022/09/16 04:26:40;;;;;;;;;5.00;5.00;;;;;18.22;56.49;100843.66;5097976;27;46208;-66
2022/09/16 04:29:06;;;;;;;;;6.33;5.00;;;;;18.23;56.51;100848.19;5102788;27;46225;-66
2022/09/16 04:31:31;;;;;;;;;9.33;7.00;;;;;18.20;56.44;100850.91;5106118;27;45454;-67
2022/09/16 04:33:56;;;;;;;;;7.33;6.00;;;;;18.01;57.03;100838.34;5100380;27;57077;-66
2022/09/16 04:36:21;;;;;;;;;8.00;7.33;;;;;18.06;57.10;100847.31;5109483;27;45428;-68
2022/09/16 04:38:48;;;;;;;;;12.00;8.00;;;;;18.06;57.23;100850.03;5100571;27;45529;-67
2022/09/16 04:41:22;;;;;;;;;8.33;6.33;;;;;18.07;57.15;100854.53;5104879;27;45493;-67
2022/09/16 04:43:54;;;;;;;;;9.00;8.33;;;;;18.07;57.24;100851.84;5105359;27;45389;-70
2022/09/16 04:46:20;;;;;;;;;8.33;8.33;;;;;18.07;57.22;100846.44;5098789;27;45416;-68
2022/09/16 04:48:47;;;;;;;;;6.00;5.67;;;;;17.96;57.31;100837.44;5096345;27;45353;-66
2022/09/16 04:51:13;;;;;;;;;11.33;9.33;;;;;18.11;57.11;100850.91;5104191;27;45565;-68
2022/09/16 04:53:39;;;;;;;;;7.33;7.00;;;;;18.14;57.03;100847.31;5105994;27;45550;-67
2022/09/16 04:56:14;;;;;;;;;12.67;9.33;;;;;18.15;56.96;100849.09;5098958;27;45594;-66
2022/09/16 04:58:51;;;;;;;;;10.00;7.33;;;;;18.16;56.78;100848.19;5107427;27;46002;-69
2022/09/16 05:01:19;;;;;;;;;6.33;6.33;;;;;18.15;57.05;100847.31;5096822;27;45372;-66
2022/09/16 05:03:50;;;;;;;;;6.33;5.00;;;;;18.19;56.72;100853.59;5098488;27;45574;-66
2022/09/16 05:06:18;;;;;;;;;9.00;5.67;;;;;18.19;56.91;100846.38;5105423;27;45589;-68
2022/09/16 05:08:43;;;;;;;;;6.33;5.67;;;;;18.20;56.79;100859.00;5102579;27;45399;-67
2022/09/16 05:11:12;;;;;;;;;10.67;10.67;;;;;18.13;56.80;100838.31;5106034;27;45381;-67
2022/09/16 05:13:38;;;;;;;;;12.00;8.67;;;;;18.27;56.46;100857.19;5109138;27;45449;-67
2022/09/16 05:16:09;;;;;;;;;12.33;9.67;;;;;18.24;56.59;100859.91;5100530;27;45672;-66
2022/09/16 05:18:36;;;;;;;;;11.00;8.00;;;;;18.02;56.61;100805.88;5103373;27;46114;-69
2022/09/16 05:21:04;;;;;;;;;11.00;10.67;;;;;18.26;56.58;100849.06;5098706;27;45452;-68
2022/09/16 05:23:30;;;;;;;;;9.33;7.33;;;;;18.15;56.48;100841.91;5105526;27;45689;-69
2022/09/16 05:26:05;;;;;;;;;11.33;11.33;;;;;18.20;56.58;100841.91;5109115;27;45418;-67
2022/09/16 05:28:30;;;;;;;;;11.67;10.67;;;;;18.17;56.73;100845.50;5103926;27;46177;-68
2022/09/16 05:31:13;;;;;;;;;10.00;9.33;;;;;18.11;56.31;100823.88;5099222;27;45334;-66
2022/09/16 05:33:41;;;;;;;;;12.67;7.33;;;;;18.26;56.73;100859.88;5097559;27;45579;-66
2022/09/16 05:36:09;;;;;;;;;7.67;7.67;;;;;18.29;56.10;100859.88;5098128;27;45489;-68
2022/09/16 05:38:34;;;;;;;;;16.33;8.00;;;;;18.29;56.36;100846.34;5110347;27;45471;-67
2022/09/16 05:41:01;;;;;;;;;9.67;9.67;;;;;18.37;56.11;100868.88;5107532;27;45327;-68
2022/09/16 05:43:26;;;;;;;;;21.25;17.75;;;;;18.39;56.08;100864.34;5103968;27;45555;-67
2022/09/16 05:45:52;;;;;;;;;15.67;12.00;;;;;18.29;56.21;100859.88;5107522;27;45434;-66
2022/09/16 05:48:18;;;;;;;;;10.67;9.33;;;;;18.21;56.20;100841.91;5107828;27;45499;-67
2022/09/16 05:50:54;;;;;;;;;11.00;8.00;;;;;18.43;55.83;100866.16;5102084;27;45617;-68
2022/09/16 05:53:20;;;;;;;;;13.67;12.00;;;;;18.42;55.97;100862.53;5108641;27;45375;-67
2022/09/16 05:55:56;;;;;;;;;9.67;9.00;;;;;18.50;55.82;100875.13;5103431;27;45580;-65
2022/09/16 05:58:22;;;;;;;;;8.33;8.00;;;;;18.49;55.75;100876.03;5108860;27;47106;-66
2022/09/16 06:00:47;;;;;;;;;8.33;8.33;;;;;18.49;55.66;100867.91;5111341;27;45476;-69
2022/09/16 06:03:12;;;;;;;;;15.33;11.67;;;;;18.53;55.71;100880.53;5105463;27;46169;-67
2022/09/16 06:05:38;;;;;;;;;10.00;9.67;;;;;18.27;55.61;100824.72;5097817;27;45361;-69
2022/09/16 06:08:03;;;;;;;;;19.67;12.00;;;;;18.41;55.88;100857.13;5096753;27;50966;-67
2022/09/16 06:10:29;;;;;;;;;12.00;12.00;;;;;18.32;55.65;100841.84;5108834;27;45697;-67
2022/09/16 06:12:54;;;;;;;;;35.25;27.50;;;;;18.41;55.87;100867.94;5106704;27;45504;-66
2022/09/16 06:15:20;;;;;;;;;8.00;8.00;;;;;18.54;55.59;100885.03;5097763;27;45554;-67
2022/09/16 06:17:45;;;;;;;;;9.33;9.33;;;;;18.40;55.83;100871.56;5096930;27;45567;-66
2022/09/16 06:20:13;;;;;;;;;14.00;11.67;;;;;18.55;55.42;100884.13;5107598;27;60576;-66
2022/09/16 06:22:39;;;;;;;;;10.67;9.33;;;;;18.54;55.51;100883.22;5104521;27;45268;-67
2022/09/16 06:25:05;;;;;;;;;9.33;8.00;;;;;18.49;55.68;100893.16;5101573;27;45393;-66
2022/09/16 06:27:31;;;;;;;;;18.67;13.33;;;;;18.48;55.70;100893.16;5107634;27;45537;-67
2022/09/16 06:29:56;;;;;;;;;13.33;13.33;;;;;18.47;55.64;100885.97;5100836;27;45489;-66
2022/09/16 06:32:21;;;;;;;;;12.67;9.67;;;;;18.50;55.82;100881.44;5107670;27;45668;-67
2022/09/16 06:34:47;;;;;;;;;27.50;22.75;;;;;18.57;55.64;100885.00;5100756;27;45395;-67
2022/09/16 06:37:13;;;;;;;;;12.00;10.33;;;;;18.55;55.61;100884.13;5105191;27;46317;-67
2022/09/16 06:39:38;;;;;;;;;15.00;12.00;;;;;18.25;55.54;100826.53;5113355;27;45028;-67
2022/09/16 06:42:07;;;;;;;;;11.33;11.00;;;;;18.50;55.52;100875.13;5120159;27;45310;-67
2022/09/16 06:44:32;;;;;;;;;10.00;10.00;;;;;18.52;54.93;100874.22;5111280;27;45483;-67
2022/09/16 06:46:57;;;;;;;;;11.33;10.33;;;;;18.59;55.56;100888.59;5102835;27;45609;-67
2022/09/16 06:49:22;;;;;;;;;11.67;10.33;;;;;18.37;55.28;100853.53;5098514;27;57311;-68
2022/09/16 06:51:48;;;;;;;;;11.33;10.67;;;;;18.60;55.19;100898.53;5101308;27;45483;-69
2022/09/16 06:54:13;;;;;;;;;14.33;12.33;;;;;18.56;55.23;100892.25;5097591;27;46927;-66
2022/09/16 06:56:40;;;;;;;;;17.67;14.33;;;;;18.56;55.87;100905.78;5101326;27;51220;-67
2022/09/16 06:59:06;;;;;;;;;19.67;16.33;;;;;18.55;55.58;100901.25;5099887;27;45498;-66
2022/09/16 07:01:32;;;;;;;;;16.00;11.33;;;;;18.56;55.82;100905.78;5103320;27;45492;-66
2022/09/16 07:04:02;;;;;;;;;13.33;12.00;;;;;18.47;55.97;100885.97;5100858;27;45269;-66
2022/09/16 07:06:29;;;;;;;;;15.67;10.67;;;;;18.50;55.21;100885.97;5099877;27;46235;-65
2022/09/16 07:08:54;;;;;;;;;12.00;11.00;;;;;18.71;55.45;100917.41;5098964;27;45641;-65
2022/09/16 07:11:21;;;;;;;;;10.00;9.33;;;;;18.73;55.08;100904.81;5109124;27;45523;-66
2022/09/16 07:13:47;;;;;;;;;9.00;5.33;;;;;18.85;54.89;100915.59;5108142;27;45250;-67
2022/09/16 07:16:15;;;;;;;;;9.33;8.33;;;;;18.90;54.54;100921.88;5112023;27;45713;-66
2022/09/16 07:18:42;;;;;;;;;18.00;11.67;;;;;18.79;54.50;100902.03;5114426;27;44957;-67
2022/09/16 07:21:11;;;;;;;;;20.33;15.67;;;;;19.00;54.75;100925.44;5103420;27;45322;-69
2022/09/16 07:23:38;;;;;;;;;16.33;14.67;;;;;19.03;54.32;100935.38;5097655;27;45360;-65
2022/09/16 07:26:09;;;;;;;;;17.00;10.33;;;;;19.02;54.25;100923.59;5097852;27;45546;-67
2022/09/16 07:28:36;;;;;;;;;13.67;9.33;;;;;19.05;54.22;100930.84;5103123;27;45719;-68
2022/09/16 07:31:04;;;;;;;;;11.33;9.67;;;;;19.09;54.14;100935.31;5096872;27;45466;-68
2022/09/16 07:33:32;;;;;;;;;14.33;11.33;;;;;19.02;54.14;100914.59;5094043;27;45864;-67
2022/09/16 07:36:01;;;;;;;;;9.33;9.33;;;;;19.08;54.00;100912.75;5101743;27;46260;-68
2022/09/16 07:38:28;;;;;;;;;19.00;12.67;;;;;19.26;53.67;100937.94;5095765;27;45436;-67
2022/09/16 07:40:54;;;;;;;;;12.00;11.33;;;;;19.30;53.65;100940.63;5098582;27;45541;-66
2022/09/16 07:43:20;;;;;;;;;13.00;11.33;;;;;19.37;53.21;100930.63;5100891;27;45474;-67
2022/09/16 07:45:45;;;;;;;;;14.67;9.67;;;;;19.01;53.36;100858.66;5097476;27;45860;-69
2022/09/16 07:48:10;;;;;;;;;20.75;18.00;;;;;19.42;52.88;100912.53;5097649;27;45313;-67
2022/09/16 07:50:36;;;;;;;;;13.33;8.33;;;;;19.38;52.48;100907.16;5097664;27;45509;-68
2022/09/16 07:53:02;;;;;;;;;14.33;9.33;;;;;19.47;52.25;100915.22;5097678;27;45620;-68
2022/09/16 07:55:27;;;;;;;;;11.00;7.50;;;;;19.66;51.60;100937.63;5096441;27;46737;-66
2022/09/16 07:57:52;;;;;;;;;9.00;7.67;;;;;19.75;51.10;100944.78;5095496;27;45477;-67
2022/09/16 08:00:18;;;;;;;;;9.67;8.33;;;;;19.34;51.13;100869.22;5097972;27;45709;-66
2022/09/16 08:02:44;;;;;;;;;9.33;8.00;;;;;19.77;50.84;100940.31;5098458;27;45589;-67
2022/09/16 08:05:09;;;;;;;;;6.33;5.00;;;;;19.63;50.53;100910.56;5096590;27;55409;-68
2022/09/16 08:07:35;;;;;;;;;9.67;7.67;;;;;19.87;50.60;100966.41;5095231;27;45451;-67
2022/09/16 08:10:01;;;;;;;;;9.67;8.67;;;;;19.65;50.12;100914.13;5096136;27;45596;-67
2022/09/16 08:12:31;;;;;;;;;9.33;8.33;;;;;19.43;50.38;100872.78;5105650;27;45449;-66
2022/09/16 08:14:56;;;;;;;;;7.33;7.33;;;;;19.84;50.13;100953.78;5097874;27;46510;-67
2022/09/16 08:17:22;;;;;;;;;14.67;11.00;;;;;19.90;49.42;100963.69;5096884;27;45461;-68
2022/09/16 08:19:47;;;;;;;;;8.67;6.00;;;;;19.81;49.41;100947.50;5093942;27;50888;-66
2022/09/16 08:22:12;;;;;;;;;7.00;6.00;;;;;19.75;49.60;100952.91;5095926;27;53712;-67
2022/09/16 08:24:38;;;;;;;;;10.00;7.33;;;;;19.77;49.31;100948.44;5096010;27;45701;-65
2022/09/16 08:27:04;;;;;;;;;12.33;8.67;;;;;19.70;49.36;100948.44;5096517;27;45450;-65
2022/09/16 08:29:29;;;;;;;;;8.67;5.00;;;;;19.78;49.04;100964.69;5098011;27;45551;-65
2022/09/16 08:31:55;;;;;;;;;6.33;5.00;;;;;19.77;48.86;100959.28;5094826;27;45471;-65
2022/09/16 08:34:20;;;;;;;;;9.33;6.67;;;;;19.58;49.04;100928.66;5100646;27;45468;-65
2022/09/16 08:36:45;;;;;;;;;5.00;5.00;;;;;19.85;49.15;100976.38;5100339;27;45469;-64
2022/09/16 08:39:11;;;;;;;;;5.67;5.00;;;;;19.79;49.10;100965.59;5101885;27;45426;-66
2022/09/16 08:41:54;;;;;;;;;10.67;6.33;;;;;19.84;49.66;100982.72;5101496;27;45599;-65
2022/09/16 08:44:49;;;;;;;;;8.67;7.67;;;;;19.88;49.64;100979.03;5101067;27;45462;-66
2022/09/16 08:47:37;;;;;;;;;16.00;11.33;;;;;19.95;50.10;100979.94;5101251;27;45568;-66
2022/09/16 08:50:09;;;;;;;;;7.67;7.00;;;;;19.89;49.11;100976.31;5101120;27;45459;-67
2022/09/16 08:52:37;;;;;;;;;6.00;3.67;;;;;19.79;47.55;100954.75;5105625;27;45385;-66
2022/09/16 08:55:23;;;;;;;;;8.67;6.33;;;;;20.02;47.91;100990.69;5099696;27;45505;-65
2022/09/16 08:57:59;;;;;;;;;7.00;7.00;;;;;20.02;47.96;100985.25;5102288;27;45279;-66
2022/09/16 09:00:25;;;;;;;;;11.00;9.67;;;;;20.15;47.84;100998.72;5099897;27;45683;-66
2022/09/16 09:02:50;;;;;;;;;10.33;7.67;;;;;20.19;47.69;100998.66;5099117;27;45708;-67
2022/09/16 09:05:22;;;;;;;;;9.00;7.67;;;;;20.25;46.60;101001.31;5099903;27;46205;-66
2022/09/16 09:08:12;;;;;;;;;12.67;9.33;;;;;20.25;46.16;100993.19;5101962;27;45448;-67
2022/09/16 09:11:15;;;;;;;;;11.00;10.00;;;;;20.20;46.72;100983.31;5105852;27;45560;-67
2022/09/16 09:14:16;;;;;;;;;8.33;7.33;;;;;20.28;45.12;101008.56;5114613;27;45629;-68
2022/09/16 09:16:57;;;;;;;;;11.00;10.00;;;;;20.27;44.77;101005.84;5103744;27;45518;-66
2022/09/16 09:19:42;;;;;;;;;6.00;4.33;;;;;20.33;44.19;101014.81;5101441;27;45364;-66
2022/09/16 09:22:37;;;;;;;;;9.67;7.33;;;;;20.36;43.04;101005.75;5097341;27;45447;-67
2022/09/16 09:25:24;;;;;;;;;10.67;9.00;;;;;20.36;43.45;101012.09;5103223;27;45474;-69
2022/09/16 09:27:55;;;;;;;;;7.00;7.00;;;;;20.43;42.63;101015.63;5098363;27;46790;-65
2022/09/16 09:30:24;;;;;;;;;10.33;9.33;;;;;20.42;42.42;101003.84;5100954;27;45530;-67
2022/09/16 09:32:52;;;;;;;;;6.67;6.00;;;;;20.57;41.77;101019.13;5100037;27;45598;-67
2022/09/16 09:35:24;;;;;;;;;9.33;7.00;;;;;20.62;41.84;101019.97;5097413;27;45475;-66
2022/09/16 09:38:07;;;;;;;;;6.33;5.00;;;;;20.74;41.38;101018.97;5097823;27;46115;-66
2022/09/16 09:40:46;;;;;;;;;2.67;2.33;;;;;20.82;40.20;101017.97;5100682;27;45482;-67
2022/09/16 09:43:19;;;;;;;;;4.33;3.67;;;;;20.88;39.78;101016.06;5100690;27;45536;-65
2022/09/16 09:46:01;;;;;;;;;4.67;4.67;;;;;21.03;39.92;101022.25;5096330;27;45459;-66
2022/09/16 09:49:09;;;;;;;;;5.00;3.33;;;;;21.21;39.50;101010.25;5110034;27;45503;-67
2022/09/16 09:51:37;;;;;;;;;2.00;1.00;;;;;21.28;38.71;101009.22;5096149;27;45798;-67
2022/09/16 09:54:28;;;;;;;;;3.00;2.00;;;;;21.47;38.43;101004.44;5102802;27;45592;-67
2022/09/16 09:57:08;;;;;;;;;3.00;3.00;;;;;21.47;37.69;100999.00;5098020;27;45416;-66
2022/09/16 09:59:34;;;;;;;;;6.00;4.00;;;;;21.59;38.34;101011.53;5098962;27;46332;-69
2022/09/16 10:02:00;;;;;;;;;4.67;2.00;;;;;21.55;37.63;100997.09;5111160;27;45371;-67
2022/09/16 10:04:29;;;;;;;;;7.33;6.00;;;;;21.75;37.16;101018.56;5100615;27;45601;-67
2022/09/16 10:06:57;;;;;;;;;3.67;3.67;;;;;21.83;36.72;101019.31;5106438;27;45304;-67
2022/09/16 10:09:23;;;;;;;;;4.33;3.67;;;;;21.86;36.40;101012.91;5102938;27;45396;-68
2022/09/16 10:11:53;;;;;;;;;4.67;2.00;;;;;21.87;36.28;101017.44;5105321;27;45586;-68
2022/09/16 10:14:45;;;;;;;;;2.00;2.00;;;;;21.84;35.99;100999.34;5105152;27;45537;-68
2022/09/16 10:17:16;;;;;;;;;1.33;1.33;;;;;21.94;34.92;101016.41;5102613;27;45453;-68
2022/09/16 10:20:06;;;;;;;;;1.67;0.33;;;;;21.89;34.82;101021.03;5116099;27;46509;-68
2022/09/16 10:22:34;;;;;;;;;4.00;4.00;;;;;21.82;34.69;100995.75;5098097;27;45553;-67
2022/09/16 10:25:05;;;;;;;;;2.00;1.00;;;;;22.03;34.28;101015.38;5115662;27;45319;-68
2022/09/16 10:27:36;;;;;;;;;1.00;1.00;;;;;21.71;33.86;100951.50;5114972;27;45445;-70
2022/09/16 10:30:16;;;;;;;;;4.00;4.00;;;;;22.03;32.81;100988.19;5099387;27;46162;-68
2022/09/16 10:32:54;;;;;;;;;1.33;1.33;;;;;22.22;32.82;101010.50;5113530;27;45586;-68
2022/09/16 10:35:23;;;;;;;;;1.67;0.00;;;;;22.09;32.98;101005.28;5113334;27;45254;-68
2022/09/16 10:37:58;;;;;;;;;1.00;1.00;;;;;21.95;32.46;101006.47;5114200;27;45403;-67
2022/09/16 10:40:24;;;;;;;;;2.00;2.00;;;;;21.71;32.89;100978.72;5114276;27;47043;-66
2022/09/16 10:42:52;;;;;;;;;2.33;1.33;;;;;21.79;32.91;101000.34;5097572;27;45462;-68
2022/09/16 10:45:28;;;;;;;;;7.00;6.00;;;;;21.86;33.25;101005.69;5095665;27;45444;-66
2022/09/16 10:48:05;;;;;;;;;4.67;3.67;;;;;21.90;33.19;101003.81;5094440;27;45325;-68
2022/09/16 10:50:31;;;;;;;;;2.00;2.00;;;;;21.90;33.98;101007.41;5094611;27;46189;-68
2022/09/16 10:52:56;;;;;;;;;1.33;1.00;;;;;21.80;33.76;100997.63;5107174;27;45525;-69
2022/09/16 10:55:26;;;;;;;;;2.33;2.33;;;;;21.80;34.15;100983.13;5115077;27;45421;-67
2022/09/16 10:58:04;;;;;;;;;2.33;2.33;;;;;22.07;33.69;101017.13;5103931;27;45460;-67
2022/09/16 11:00:37;;;;;;;;;3.00;1.67;;;;;21.92;33.41;100974.75;5093734;27;45357;-67
2022/09/16 11:03:24;;;;;;;;;2.00;2.00;;;;;22.26;33.02;101017.72;5094540;27;45465;-68
2022/09/16 11:06:23;;;;;;;;;16.00;14.67;;;;;22.33;32.99;101010.38;5113519;27;45466;-66
2022/09/16 11:09:06;;;;;;;;;3.67;3.00;;;;;22.35;33.04;101023.00;5111716;27;45499;-66
2022/09/16 11:12:03;;;;;;;;;1.67;0.67;;;;;22.16;33.25;100991.56;5113889;27;45432;-69
2022/09/16 11:15:01;;;;;;;;;9.00;6.00;;;;;22.21;33.60;101020.50;5093270;27;45640;-69
2022/09/16 11:17:43;;;;;;;;;23.33;20.33;;;;;22.16;34.18;101010.59;5093927;27;45359;-66
2022/09/16 11:20:27;;;;;;;;;5.67;3.00;;;;;22.14;34.53;101018.84;5093736;27;45419;-67
2022/09/16 11:23:25;;;;;;;;;1.00;1.00;;;;;22.11;34.05;101028.84;5099691;27;45626;-68
2022/09/16 11:26:19;;;;;;;;;4.33;3.00;;;;;22.04;33.98;101017.16;5089046;27;45593;-68
2022/09/16 11:29:12;;;;;;;;;1.00;1.00;;;;;21.98;33.50;101023.63;5100563;27;45498;-66
2022/09/16 11:31:56;;;;;;;;;9.33;4.00;;;;;21.99;33.84;101022.72;5097668;27;45498;-68
2022/09/16 11:34:48;;;;;;;;;3.00;2.00;;;;;22.01;33.81;101025.38;5101854;27;46273;-70
2022/09/16 11:37:43;;;;;;;;;1.00;1.00;;;;;21.93;33.40;101008.28;5112354;27;45414;-66
2022/09/16 11:40:19;;;;;;;;;3.33;3.00;;;;;22.02;33.80;101024.47;5099671;27;45516;-67
2022/09/16 11:42:54;;;;;;;;;8.00;5.33;;;;;22.09;33.48;101032.50;5096759;27;45585;-68
2022/09/16 11:45:51;;;;;;;;;4.00;4.00;;;;;22.21;32.74;101025.94;5097626;27;46615;-66
2022/09/16 11:48:20;;;;;;;;;14.67;14.67;;;;;22.30;32.69;101016.75;5099352;27;45520;-68